createdAt,value
2023-01-13T00:00:45.652Z,8.12
2023-01-13T00:03:40.883Z,8.13
2023-01-13T00:06:33.509Z,8.13
2023-01-13T00:09:31.170Z,8.14
2023-01-13T00:12:30.102Z,8.15
2023-01-13T00:18:28.276Z,8.14
2023-01-13T00:21:04.384Z,8.15
2023-01-13T00:23:56.005Z,8.15
2023-01-13T00:26:48.724Z,8.16
2023-01-13T00:29:46.994Z,8.17
2023-01-13T00:35:28.691Z,8.21
2023-01-13T00:38:19.903Z,8.23
2023-01-13T00:41:08.152Z,8.24
2023-01-13T00:43:58.564Z,8.26
2023-01-13T00:46:50.104Z,8.27
2023-01-13T00:49:33.265Z,8.28
2023-01-13T00:52:29.048Z,8.29
2023-01-13T00:55:25.485Z,8.29
2023-01-13T00:58:22.074Z,8.29
2023-01-13T01:01:16.013Z,8.28
2023-01-13T01:04:10.003Z,8.29
2023-01-13T01:06:52.661Z,8.29
2023-01-13T01:09:57.404Z,8.31
2023-01-13T01:13:10.064Z,8.34
2023-01-13T01:15:51.151Z,8.35
2023-01-13T01:19:04.408Z,8.36
2023-01-13T01:21:59.920Z,8.37
2023-01-13T01:24:55.545Z,8.37
2023-01-13T01:27:47.240Z,8.37
2023-01-13T01:30:45.585Z,8.37
2023-01-13T01:33:20.135Z,8.38
2023-01-13T01:36:17.448Z,8.38
2023-01-13T01:39:10.665Z,8.38
2023-01-13T01:42:34.121Z,8.37
2023-01-13T01:45:28.226Z,8.37
2023-01-13T01:48:23.821Z,8.37
2023-01-13T01:51:28.921Z,8.38
2023-01-13T01:54:25.806Z,8.37
2023-01-13T01:57:18.434Z,8.36
2023-01-13T02:00:13.732Z,8.37
2023-01-13T02:03:07.400Z,8.41
2023-01-13T02:06:01.259Z,8.44
2023-01-13T02:08:55.462Z,8.46
2023-01-13T02:12:03.308Z,8.48
2023-01-13T02:14:34.283Z,8.50
2023-01-13T02:17:42.284Z,8.49
2023-01-13T02:20:45.505Z,8.50
2023-01-13T02:24:35.369Z,8.51
2023-01-13T02:27:35.740Z,8.49
2023-01-13T02:30:36.292Z,8.49
2023-01-13T02:33:42.438Z,8.49
2023-01-13T02:36:47.871Z,8.52
2023-01-13T02:39:49.800Z,8.52
2023-01-13T02:42:51.591Z,8.52
2023-01-13T02:45:55.322Z,8.52
2023-01-13T02:48:59.326Z,8.52
2023-01-13T02:51:54.815Z,8.51
2023-01-13T02:54:52.994Z,8.51
2023-01-13T02:57:34.604Z,8.51
2023-01-13T03:00:29.300Z,8.50
2023-01-13T03:03:32.381Z,8.51
2023-01-13T03:06:39.569Z,8.49
2023-01-13T03:09:40.787Z,8.49
2023-01-13T03:12:44.964Z,8.50
2023-01-13T03:15:42.691Z,8.50
2023-01-13T03:18:44.596Z,8.47
2023-01-13T03:21:50.611Z,8.44
2023-01-13T03:24:34.877Z,8.40
2023-01-13T03:27:39.013Z,8.38
2023-01-13T03:30:47.784Z,8.36
2023-01-13T03:33:45.529Z,8.36
2023-01-13T03:36:49.125Z,8.34
2023-01-13T03:39:55.677Z,8.33
2023-01-13T03:43:09.595Z,8.35
2023-01-13T03:46:11.155Z,8.34
2023-01-13T03:48:53.705Z,8.35
2023-01-13T03:51:55.230Z,8.35
2023-01-13T03:54:33.637Z,8.35
2023-01-13T03:57:35.298Z,8.36
2023-01-13T04:00:43.968Z,8.36
2023-01-13T04:03:40.197Z,8.35
2023-01-13T04:06:47.054Z,8.34
2023-01-13T04:09:51.118Z,8.32
2023-01-13T04:13:02.865Z,8.32
2023-01-13T04:15:38.359Z,8.33
2023-01-13T04:18:48.147Z,8.34
2023-01-13T04:21:41.466Z,8.34
2023-01-13T04:24:36.537Z,8.34
2023-01-13T04:27:31.234Z,8.35
2023-01-13T04:30:35.480Z,8.36
2023-01-13T04:33:46.083Z,8.38
2023-01-13T04:36:25.345Z,8.41
2023-01-13T04:39:18.828Z,8.43
2023-01-13T04:42:13.802Z,8.42
2023-01-13T04:45:05.866Z,8.43
2023-01-13T04:48:05.546Z,8.43
2023-01-13T04:50:56.555Z,8.43
2023-01-13T04:53:47.082Z,8.42
2023-01-13T04:56:39.847Z,8.41
2023-01-13T04:59:37.090Z,8.39
2023-01-13T05:02:32.432Z,8.35
2023-01-13T05:05:07.359Z,8.38
2023-01-13T05:08:05.132Z,8.38
2023-01-13T05:11:27.575Z,8.38
2023-01-13T05:14:18.271Z,8.38
2023-01-13T05:17:09.598Z,8.41
2023-01-13T05:20:03.467Z,8.42
2023-01-13T05:23:11.803Z,8.42
2023-01-13T05:26:05.272Z,8.42
2023-01-13T05:28:57.144Z,8.41
2023-01-13T05:31:49.511Z,8.41
2023-01-13T05:34:46.533Z,8.41
2023-01-13T05:37:24.445Z,8.40
2023-01-13T05:40:36.810Z,8.41
2023-01-13T05:43:24.943Z,8.38
2023-01-13T05:46:18.098Z,8.39
2023-01-13T05:49:08.423Z,8.38
2023-01-13T05:52:00.049Z,8.37
2023-01-13T05:54:59.009Z,8.38
2023-01-13T05:57:52.844Z,8.39
2023-01-13T06:01:08.296Z,8.38
2023-01-13T06:04:04.744Z,8.38
2023-01-13T06:07:01.195Z,8.38
2023-01-13T06:09:57.731Z,8.40
2023-01-13T06:12:50.557Z,8.41
2023-01-13T06:15:22.242Z,8.42
2023-01-13T06:18:10.098Z,8.43
2023-01-13T06:20:37.694Z,8.45
2023-01-13T06:23:08.317Z,8.46
2023-01-13T06:25:44.109Z,8.46
2023-01-13T06:28:11.926Z,8.47
2023-01-13T06:30:45.091Z,8.47
2023-01-13T06:33:15.483Z,8.48
2023-01-13T06:35:46.260Z,8.48
2023-01-13T06:38:16.682Z,8.48
2023-01-13T06:40:44.371Z,8.48
2023-01-13T06:43:16.317Z,8.48
2023-01-13T06:45:48.628Z,8.49
2023-01-13T06:48:18.113Z,8.50
2023-01-13T06:50:45.775Z,8.51
2023-01-13T06:53:13.402Z,8.51
2023-01-13T06:55:41.005Z,8.52
2023-01-13T06:58:08.506Z,8.51
2023-01-13T07:00:37.317Z,8.51
2023-01-13T07:03:13.367Z,8.52
2023-01-13T07:05:42.732Z,8.53
2023-01-13T07:08:10.854Z,8.53
2023-01-13T07:10:38.811Z,8.54
2023-01-13T07:13:24.915Z,8.55
2023-01-13T07:15:59.236Z,8.56
2023-01-13T07:18:32.093Z,8.56
2023-01-13T07:21:01.869Z,8.57
2023-01-13T07:23:33.569Z,8.56
2023-01-13T07:26:05.961Z,8.56
2023-01-13T07:28:35.143Z,8.57
2023-01-13T07:31:04.945Z,8.58
2023-01-13T07:33:32.864Z,8.59
2023-01-13T07:36:03.194Z,8.60
2023-01-13T07:38:31.608Z,8.60
2023-01-13T07:41:21.279Z,8.61
2023-01-13T07:43:54.338Z,8.62
2023-01-13T07:46:22.593Z,8.65
2023-01-13T07:48:51.598Z,8.67
2023-01-13T07:51:19.656Z,8.68
2023-01-13T07:53:47.230Z,8.69
2023-01-13T07:56:15.008Z,8.70
2023-01-13T07:58:44.468Z,8.71
2023-01-13T08:01:16.270Z,8.72
2023-01-13T08:03:44.311Z,8.74
2023-01-13T08:06:12.872Z,8.75
2023-01-13T08:08:40.758Z,8.76
2023-01-13T08:11:09.317Z,8.78
2023-01-13T08:13:37.641Z,8.79
2023-01-13T08:16:17.374Z,8.81
2023-01-13T08:18:45.193Z,8.84
2023-01-13T08:21:16.813Z,8.87
2023-01-13T08:23:46.469Z,8.90
2023-01-13T08:26:17.322Z,8.91
2023-01-13T08:28:46.152Z,8.93
2023-01-13T08:31:16.764Z,8.93
2023-01-13T08:33:44.756Z,8.92
2023-01-13T08:36:13.150Z,8.91
2023-01-13T08:38:42.892Z,8.91
2023-01-13T08:41:12.551Z,8.90
2023-01-13T08:43:41.426Z,8.89
2023-01-13T08:46:09.250Z,8.89
2023-01-13T08:48:37.350Z,8.90
2023-01-13T08:51:07.760Z,8.91
2023-01-13T08:53:56.823Z,8.91
2023-01-13T08:56:45.023Z,8.91
2023-01-13T08:59:34.215Z,8.89
2023-01-13T09:02:02.883Z,8.89
2023-01-13T09:04:31.312Z,8.89
2023-01-13T09:06:59.026Z,8.90
2023-01-13T09:09:30.037Z,8.90
2023-01-13T09:12:17.648Z,8.89
2023-01-13T09:14:45.695Z,8.90
2023-01-13T09:17:14.748Z,8.91
2023-01-13T09:19:42.337Z,8.90
2023-01-13T09:22:15.189Z,8.92
2023-01-13T09:24:47.067Z,8.96
2023-01-13T09:27:16.119Z,8.98
2023-01-13T09:29:43.750Z,9.00
2023-01-13T09:32:13.817Z,9.02
2023-01-13T09:35:00.065Z,9.03
2023-01-13T09:37:29.137Z,9.04
2023-01-13T09:39:57.821Z,9.06
2023-01-13T09:42:51.383Z,9.08
2023-01-13T09:45:25.930Z,9.09
2023-01-13T09:48:03.610Z,9.12
2023-01-13T09:50:47.084Z,9.16
2023-01-13T09:53:20.114Z,9.20
2023-01-13T09:55:48.072Z,9.22
2023-01-13T09:58:18.895Z,9.23
2023-01-13T10:01:00.516Z,9.24
2023-01-13T10:03:30.920Z,9.25
2023-01-13T10:06:04.174Z,9.27
2023-01-13T10:08:34.794Z,9.31
2023-01-13T10:11:31.483Z,9.34
2023-01-13T10:14:02.053Z,9.40
2023-01-13T10:16:41.906Z,9.48
2023-01-13T10:19:18.552Z,9.57
2023-01-13T10:22:18.683Z,9.69
2023-01-13T10:25:08.866Z,9.83
2023-01-13T10:27:39.060Z,9.96
2023-01-13T10:30:21.637Z,10.04
2023-01-13T10:32:54.800Z,10.11
2023-01-13T10:35:53.549Z,10.14
2023-01-13T10:38:23.461Z,10.20
2023-01-13T10:40:54.730Z,10.26
2023-01-13T10:43:28.956Z,10.32
2023-01-13T10:46:04.460Z,10.40
2023-01-13T10:48:43.405Z,10.46
2023-01-13T10:51:23.591Z,10.51
2023-01-13T10:53:55.526Z,10.50
2023-01-13T10:56:32.832Z,10.43
2023-01-13T10:59:22.518Z,10.41
2023-01-13T11:02:03.825Z,10.40
2023-01-13T11:04:36.722Z,10.36
2023-01-13T11:07:16.211Z,10.37
2023-01-13T11:09:43.794Z,10.38
2023-01-13T11:12:31.833Z,10.39
2023-01-13T11:15:01.853Z,10.37
2023-01-13T11:17:38.464Z,10.34
2023-01-13T11:20:17.803Z,10.32
2023-01-13T11:23:01.169Z,10.30
2023-01-13T11:25:41.478Z,10.35
2023-01-13T11:28:24.024Z,10.42
2023-01-13T11:30:57.468Z,10.44
2023-01-13T11:33:35.347Z,10.47
2023-01-13T11:36:10.838Z,10.45
2023-01-13T11:38:45.413Z,10.42
2023-01-13T11:41:26.636Z,10.39
2023-01-13T11:43:59.568Z,10.36
2023-01-13T11:46:28.286Z,10.36
2023-01-13T11:48:56.696Z,10.38
2023-01-13T11:51:33.361Z,10.41
2023-01-13T11:54:14.677Z,10.43
2023-01-13T11:57:02.824Z,10.41
2023-01-13T11:59:49.492Z,10.40
2023-01-13T12:02:33.072Z,10.41
2023-01-13T12:05:14.540Z,10.45
2023-01-13T12:07:51.111Z,10.51
2023-01-13T12:10:42.555Z,10.57
2023-01-13T12:13:21.860Z,10.63
2023-01-13T12:16:13.441Z,10.70
2023-01-13T12:19:04.896Z,10.75
2023-01-13T12:21:37.184Z,10.79
2023-01-13T12:24:17.081Z,10.80
2023-01-13T12:26:49.961Z,10.80
2023-01-13T12:29:19.568Z,10.78
2023-01-13T12:31:48.939Z,10.75
2023-01-13T12:34:41.898Z,10.77
2023-01-13T12:37:17.028Z,10.84
2023-01-13T12:39:58.267Z,10.99
2023-01-13T12:42:52.107Z,11.10
2023-01-13T12:45:28.675Z,11.19
2023-01-13T12:47:57.836Z,11.20
2023-01-13T12:50:41.386Z,11.20
2023-01-13T12:53:30.453Z,11.21
2023-01-13T12:56:36.590Z,11.27
2023-01-13T12:59:48.136Z,11.35
2023-01-13T13:02:34.879Z,11.54
2023-01-13T13:05:44.757Z,11.80
2023-01-13T13:08:20.241Z,12.05
2023-01-13T13:11:01.687Z,12.20
2023-01-13T13:13:45.291Z,11.97
2023-01-13T13:16:45.797Z,11.64
2023-01-13T13:19:43.900Z,11.39
2023-01-13T13:22:41.853Z,11.21
2023-01-13T13:25:23.386Z,11.05
2023-01-13T13:28:15.587Z,10.92
2023-01-13T13:30:53.324Z,10.80
2023-01-13T13:33:39.274Z,10.70
2023-01-13T13:36:20.445Z,10.64
2023-01-13T13:39:23.181Z,10.59
2023-01-13T13:42:13.026Z,10.53
2023-01-13T13:45:03.833Z,10.50
2023-01-13T13:47:36.579Z,10.47
2023-01-13T13:50:09.168Z,10.43
2023-01-13T13:52:42.801Z,10.39
2023-01-13T13:55:18.668Z,10.36
2023-01-13T13:57:48.444Z,10.32
2023-01-13T14:00:26.394Z,10.29
2023-01-13T14:02:58.098Z,10.28
2023-01-13T14:05:28.302Z,10.25
2023-01-13T14:08:01.297Z,10.23
2023-01-13T14:10:32.831Z,10.21
2023-01-13T14:13:03.283Z,10.19
2023-01-13T14:15:34.903Z,10.16
2023-01-13T14:18:06.118Z,10.13
2023-01-13T14:20:35.243Z,10.12
2023-01-13T14:23:05.031Z,10.10
2023-01-13T14:25:37.646Z,10.08
2023-01-13T14:28:18.556Z,10.06
2023-01-13T14:30:46.966Z,10.03
2023-01-13T14:33:18.079Z,9.99
2023-01-13T14:36:04.880Z,9.96
2023-01-13T14:38:32.655Z,9.83
2023-01-13T14:41:11.190Z,9.71
2023-01-13T14:43:45.756Z,9.54
2023-01-13T14:46:14.659Z,9.40
2023-01-13T14:48:46.553Z,9.29
2023-01-13T14:51:22.599Z,9.16
2023-01-13T14:53:50.875Z,9.08
2023-01-13T14:56:37.649Z,9.01
2023-01-13T14:59:32.009Z,8.94
2023-01-13T15:02:00.169Z,8.90
2023-01-13T15:04:36.725Z,8.86
2023-01-13T15:07:05.408Z,8.83
2023-01-13T15:09:41.409Z,8.79
2023-01-13T15:12:22.628Z,8.74
2023-01-13T15:14:53.552Z,8.69
2023-01-13T15:17:21.186Z,8.65
2023-01-13T15:19:48.795Z,8.63
2023-01-13T15:22:16.341Z,8.62
2023-01-13T15:24:44.648Z,8.61
2023-01-13T15:27:19.336Z,8.56
2023-01-13T15:29:47.346Z,8.54
2023-01-13T15:32:19.146Z,8.53
2023-01-13T15:34:47.411Z,8.48
2023-01-13T15:37:16.207Z,8.45
2023-01-13T15:39:44.138Z,8.43
2023-01-13T15:42:32.475Z,8.41
2023-01-13T15:45:25.642Z,8.38
2023-01-13T15:48:00.627Z,8.34
2023-01-13T15:50:33.030Z,8.29
2023-01-13T15:53:05.864Z,8.27
2023-01-13T15:56:00.581Z,8.26
2023-01-13T15:59:03.632Z,8.25
2023-01-13T16:01:36.234Z,8.23
2023-01-13T16:04:08.877Z,8.22
2023-01-13T16:07:08.045Z,8.21
2023-01-13T16:09:36.936Z,8.19
2023-01-13T16:12:07.861Z,8.17
2023-01-13T16:15:01.333Z,8.14
2023-01-13T16:17:47.245Z,8.11
2023-01-13T16:20:36.949Z,8.09
2023-01-13T16:23:29.857Z,8.09
2023-01-13T16:26:23.164Z,8.07
2023-01-13T16:29:18.359Z,8.04
2023-01-13T16:31:57.775Z,8.05
2023-01-13T16:34:51.605Z,8.05
2023-01-13T16:37:35.710Z,8.03
2023-01-13T16:40:39.392Z,8.00
2023-01-13T16:43:34.750Z,7.99
2023-01-13T16:46:25.669Z,7.97
2023-01-13T16:49:16.390Z,7.93
2023-01-13T16:52:06.725Z,7.87
2023-01-13T16:55:09.867Z,7.81
2023-01-13T16:57:44.687Z,7.76
2023-01-13T17:00:18.001Z,7.72
2023-01-13T17:03:27.579Z,7.67
2023-01-13T17:06:25.396Z,7.65
2023-01-13T17:09:21.260Z,7.64
2023-01-13T17:12:10.267Z,7.60
2023-01-13T17:14:43.009Z,7.58
2023-01-13T17:17:33.962Z,7.55
2023-01-13T17:20:25.620Z,7.52
2023-01-13T17:22:58.764Z,7.48
2023-01-13T17:25:54.023Z,7.41
2023-01-13T17:28:34.222Z,7.34
2023-01-13T17:31:28.118Z,7.27
2023-01-13T17:34:21.660Z,7.22
2023-01-13T17:36:49.870Z,7.17
2023-01-13T17:39:19.597Z,7.13
2023-01-13T17:41:50.246Z,7.08
2023-01-13T17:44:23.511Z,7.01
2023-01-13T17:46:51.345Z,6.97
2023-01-13T17:49:21.198Z,6.92
2023-01-13T17:51:50.831Z,6.89
2023-01-13T17:54:20.112Z,6.85
2023-01-13T17:56:48.030Z,6.79
2023-01-13T17:59:19.322Z,6.73
2023-01-13T18:01:47.263Z,6.68
2023-01-13T18:04:19.511Z,6.62
2023-01-13T18:06:49.674Z,6.58
2023-01-13T18:09:17.559Z,6.52
2023-01-13T18:11:47.312Z,6.48
2023-01-13T18:14:18.673Z,6.45
2023-01-13T18:16:47.009Z,6.46
2023-01-13T18:19:49.684Z,6.48
2023-01-13T18:22:36.348Z,6.50
2023-01-13T18:25:24.437Z,6.46
2023-01-13T18:28:13.055Z,6.29
2023-01-13T18:30:44.743Z,6.20
2023-01-13T18:33:33.362Z,6.15
2023-01-13T18:36:07.051Z,6.13
2023-01-13T18:38:35.155Z,6.09
2023-01-13T18:41:26.541Z,6.05
2023-01-13T18:43:55.079Z,6.03
2023-01-13T18:46:23.405Z,6.08
2023-01-13T18:48:58.686Z,6.14
2023-01-13T18:51:44.111Z,6.21
2023-01-13T18:57:17.858Z,6.33
2023-01-13T18:59:45.839Z,6.36
2023-01-13T19:02:20.148Z,6.33
2023-01-13T19:04:49.344Z,6.34
2023-01-13T19:07:22.669Z,6.32
2023-01-13T19:09:54.530Z,6.31
2023-01-13T19:12:29.716Z,6.32
2023-01-13T19:15:00.544Z,6.35
2023-01-13T19:17:35.509Z,6.37
2023-01-13T19:20:05.376Z,6.40
2023-01-13T19:22:34.813Z,6.43
2023-01-13T19:25:14.285Z,6.45
2023-01-13T19:27:42.394Z,6.46
2023-01-13T19:30:15.140Z,6.46
2023-01-13T19:32:45.332Z,6.46
2023-01-13T19:35:17.419Z,6.45
2023-01-13T19:37:46.174Z,6.45
2023-01-13T19:40:14.250Z,6.45
2023-01-13T19:43:01.466Z,6.45
2023-01-13T19:45:31.505Z,6.45
2023-01-13T19:48:01.772Z,6.45
2023-01-13T19:50:30.384Z,6.49
2023-01-13T19:52:58.454Z,6.49
2023-01-13T19:55:27.435Z,6.47
2023-01-13T19:57:58.196Z,6.44
2023-01-13T20:00:26.224Z,6.40
2023-01-13T20:02:56.027Z,6.36
2023-01-13T20:05:25.464Z,6.33
2023-01-13T20:07:54.015Z,6.31
2023-01-13T20:10:23.409Z,6.30
2023-01-13T20:12:53.804Z,6.27
2023-01-13T20:15:21.851Z,6.24
2023-01-13T20:17:51.131Z,6.22
2023-01-13T20:20:19.893Z,6.19
2023-01-13T20:22:51.445Z,6.19
2023-01-13T20:25:20.067Z,6.18
2023-01-13T20:27:51.693Z,6.16
2023-01-13T20:30:21.997Z,6.13
2023-01-13T20:32:51.527Z,6.10
2023-01-13T20:35:19.490Z,6.07
2023-01-13T20:37:47.319Z,6.05
2023-01-13T20:40:17.764Z,6.00
2023-01-13T20:42:48.775Z,5.98
2023-01-13T20:45:20.259Z,5.95
2023-01-13T20:47:48.065Z,5.93
2023-01-13T20:50:21.215Z,5.90
2023-01-13T20:52:52.091Z,5.86
2023-01-13T20:55:20.126Z,5.82
2023-01-13T20:57:49.578Z,5.80
2023-01-13T21:00:19.773Z,5.82
2023-01-13T21:02:51.159Z,5.84
2023-01-13T21:05:19.496Z,5.88
2023-01-13T21:07:47.683Z,5.92
2023-01-13T21:10:17.090Z,6.00
2023-01-13T21:13:03.165Z,6.02
2023-01-13T21:15:31.213Z,6.03
2023-01-13T21:18:17.622Z,6.03
2023-01-13T21:20:45.360Z,5.99
2023-01-13T21:23:13.856Z,5.98
2023-01-13T21:25:49.332Z,5.95
2023-01-13T21:28:26.211Z,5.92
2023-01-13T21:31:25.809Z,5.91
2023-01-13T21:38:14.881Z,5.88
2023-01-13T21:41:37.895Z,5.83
2023-01-13T21:44:37.933Z,5.80
2023-01-13T21:48:00.020Z,5.76
2023-01-13T21:50:48.287Z,5.71
2023-01-13T21:53:31.683Z,5.66
2023-01-13T22:00:20.049Z,5.53
2023-01-13T22:03:09.763Z,5.49
2023-01-13T22:06:09.050Z,5.48
2023-01-13T22:09:01.222Z,5.47
2023-01-13T22:11:42.609Z,5.46
2023-01-13T22:14:20.931Z,5.49
2023-01-13T22:17:04.834Z,5.50
2023-01-13T22:19:42.720Z,5.51
2023-01-13T22:22:36.379Z,5.56
2023-01-13T22:25:15.221Z,5.62
2023-01-13T22:27:48.473Z,5.66
2023-01-13T22:30:25.352Z,5.65
2023-01-13T22:33:12.806Z,5.62
2023-01-13T22:36:00.237Z,5.60
2023-01-13T22:38:47.691Z,5.58
2023-01-13T22:41:26.201Z,5.58
2023-01-13T22:44:04.081Z,5.59
2023-01-13T22:46:38.404Z,5.63
2023-01-13T22:49:18.137Z,5.66
2023-01-13T22:51:55.125Z,5.68
2023-01-13T22:57:26.213Z,5.67
2023-01-13T23:00:41.387Z,5.66
2023-01-13T23:03:34.881Z,5.61
2023-01-13T23:06:19.965Z,5.57
2023-01-13T23:09:13.352Z,5.53
2023-01-13T23:11:51.165Z,5.49
2023-01-13T23:14:30.546Z,5.44
2023-01-13T23:17:02.382Z,5.42
2023-01-13T23:19:36.112Z,5.38
2023-01-13T23:22:29.750Z,5.33
2023-01-13T23:25:19.737Z,5.27
2023-01-13T23:27:51.383Z,5.22
2023-01-13T23:30:23.855Z,5.17
2023-01-13T23:33:05.682Z,5.12
2023-01-13T23:35:38.013Z,5.07
2023-01-13T23:38:12.231Z,5.04
2023-01-13T23:40:50.614Z,5.00
2023-01-13T23:43:27.601Z,4.97
2023-01-13T23:46:11.835Z,4.92
2023-01-13T23:48:52.564Z,4.87
2023-01-13T23:51:43.026Z,4.82
2023-01-13T23:54:21.859Z,4.80
2023-01-13T23:57:21.829Z,4.78
